PGT752 DAAG-LTFJ
Flight info
| Callsign | PGT752 |
|---|---|
| Flight time | N/A |
| Altitude | 39000 |
| Route | BJA1D BJA UA411 TUC UR781 SONAK DCT ARFOL DCT AMREX DCT ROTSA DCT AGISA DCT BELGI UN131 CNK DCT SUVUP UY217 INBET UY213 VUTZO |
| Aircraft | B738/M-SDE2E3FGIRWXY/LB1 |
Departure
| Time | 2026-05-01 13:35 |
|---|---|
| Airport | Houari Boumediene Airport (DAAG) |
Arrival
| Time | N/A |
|---|---|
| Airport | Istanbul Sabiha Gökçen International Airport (LTFJ) |
| Time | Latitude | Longitude | Altitude | Speed | Heading |
|---|---|---|---|---|---|
| 2026-05-01 12:18 | 36.69700 | 3.20108 | 69 ft | 0 kts | 90° |
| 2026-05-01 13:07 | 36.69701 | 3.20108 | 69 ft | 0 kts | 90° |
| 2026-05-01 13:08 | 36.69700 | 3.20108 | 69 ft | 0 kts | 90° |
| 2026-05-01 13:08 | 36.69701 | 3.20108 | 69 ft | 0 kts | 90° |
| 2026-05-01 13:09 | 36.69700 | 3.20108 | 69 ft | 0 kts | 90° |
| 2026-05-01 13:10 | 36.69701 | 3.20108 | 69 ft | 0 kts | 90° |
| 2026-05-01 13:22 | 36.69701 | 3.20094 | 69 ft | 4 kts | 85° |
| 2026-05-01 13:23 | 36.69695 | 3.20062 | 64 ft | 4 kts | 66° |
| 2026-05-01 13:23 | 36.69684 | 3.20033 | 60 ft | 4 kts | 75° |
| 2026-05-01 13:23 | 36.69681 | 3.20005 | 61 ft | 4 kts | 57° |
| 2026-05-01 13:23 | 36.69662 | 3.19990 | 59 ft | 4 kts | 9° |
| 2026-05-01 13:24 | 36.69638 | 3.19987 | 59 ft | 1 kts | 1° |
| 2026-05-01 13:27 | 36.69643 | 3.19988 | 59 ft | 3 kts | 2° |
| 2026-05-01 13:27 | 36.69695 | 3.19990 | 62 ft | 11 kts | 2° |
| 2026-05-01 13:27 | 36.69710 | 3.19909 | 68 ft | 10 kts | 185° |
| 2026-05-01 13:28 | 36.69576 | 3.19904 | 66 ft | 10 kts | 181° |
| 2026-05-01 13:28 | 36.69507 | 3.19900 | 69 ft | 10 kts | 183° |
| 2026-05-01 13:29 | 36.69454 | 3.20029 | 69 ft | 11 kts | 92° |
| 2026-05-01 13:29 | 36.69450 | 3.20208 | 62 ft | 10 kts | 91° |
| 2026-05-01 13:30 | 36.69440 | 3.20568 | 69 ft | 13 kts | 92° |
| 2026-05-01 13:31 | 36.69436 | 3.20770 | 65 ft | 11 kts | 92° |
| 2026-05-01 13:31 | 36.69386 | 3.21023 | 69 ft | 15 kts | 90° |
| 2026-05-01 13:32 | 36.69384 | 3.21317 | 69 ft | 17 kts | 91° |
| 2026-05-01 13:33 | 36.69382 | 3.21701 | 69 ft | 14 kts | 90° |
| 2026-05-01 13:33 | 36.69380 | 3.21972 | 71 ft | 14 kts | 91° |
| 2026-05-01 13:34 | 36.69658 | 3.22466 | 75 ft | 91 kts | 53° |
| 2026-05-01 13:34 | 36.70879 | 3.24464 | 318 ft | 177 kts | 50° |
| 2026-05-01 13:35 | 36.72305 | 3.26984 | 1878 ft | 199 kts | 64° |
| 2026-05-01 13:35 | 36.72512 | 3.28802 | 2200 ft | 228 kts | 91° |
| 2026-05-01 13:35 | 36.72473 | 3.33009 | 3459 ft | 259 kts | 89° |
| 2026-05-01 13:36 | 36.72484 | 3.35262 | 4269 ft | 266 kts | 88° |
| 2026-05-01 13:36 | 36.72494 | 3.37585 | 5220 ft | 269 kts | 88° |
| 2026-05-01 13:36 | 36.72506 | 3.42234 | 7151 ft | 271 kts | 89° |
| 2026-05-01 13:37 | 36.72512 | 3.44616 | 7934 ft | 278 kts | 89° |
| 2026-05-01 13:37 | 36.72515 | 3.47038 | 8778 ft | 281 kts | 89° |
| 2026-05-01 13:37 | 36.72517 | 3.49495 | 9643 ft | 286 kts | 89° |
| 2026-05-01 13:37 | 36.72519 | 3.51962 | 10426 ft | 291 kts | 89° |
| 2026-05-01 13:38 | 36.72521 | 3.57412 | 11044 ft | 336 kts | 89° |
| 2026-05-01 13:38 | 36.72519 | 3.60365 | 11660 ft | 345 kts | 89° |
| 2026-05-01 13:38 | 36.72516 | 3.63365 | 12454 ft | 348 kts | 89° |
| 2026-05-01 13:39 | 36.72511 | 3.66400 | 13241 ft | 351 kts | 90° |
| 2026-05-01 13:39 | 36.72507 | 3.69461 | 14017 ft | 356 kts | 90° |
| 2026-05-01 13:39 | 36.72501 | 3.72569 | 14667 ft | 361 kts | 90° |
| 2026-05-01 13:39 | 36.72495 | 3.75723 | 15303 ft | 367 kts | 90° |
| 2026-05-01 13:40 | 36.72488 | 3.78883 | 15965 ft | 372 kts | 90° |
| 2026-05-01 13:40 | 36.72480 | 3.82132 | 16561 ft | 378 kts | 90° |
| 2026-05-01 13:40 | 36.72471 | 3.85434 | 17267 ft | 381 kts | 90° |
| 2026-05-01 13:40 | 36.72461 | 3.88762 | 17907 ft | 387 kts | 90° |
| 2026-05-01 13:41 | 36.72450 | 3.92130 | 18561 ft | 391 kts | 90° |
| 2026-05-01 13:41 | 36.72438 | 3.95536 | 19138 ft | 395 kts | 90° |
| 2026-05-01 13:41 | 36.72425 | 3.98964 | 19735 ft | 398 kts | 90° |
| 2026-05-01 13:41 | 36.72410 | 4.02426 | 20307 ft | 401 kts | 90° |
| 2026-05-01 13:42 | 36.72395 | 4.05875 | 20854 ft | 406 kts | 90° |
| 2026-05-01 13:42 | 36.72378 | 4.09407 | 21393 ft | 410 kts | 91° |
| 2026-05-01 13:42 | 36.72361 | 4.12974 | 21929 ft | 414 kts | 91° |
| 2026-05-01 13:42 | 36.72341 | 4.16583 | 22454 ft | 418 kts | 91° |
| 2026-05-01 13:43 | 36.72321 | 4.20219 | 22967 ft | 422 kts | 91° |
| 2026-05-01 13:43 | 36.72299 | 4.23893 | 23483 ft | 426 kts | 91° |
| 2026-05-01 13:43 | 36.72276 | 4.27603 | 23931 ft | 430 kts | 91° |
| 2026-05-01 13:43 | 36.72252 | 4.31335 | 24381 ft | 432 kts | 91° |
| 2026-05-01 13:44 | 36.72226 | 4.35044 | 24843 ft | 434 kts | 91° |
| 2026-05-01 13:44 | 36.72200 | 4.38808 | 25297 ft | 437 kts | 91° |
| 2026-05-01 13:44 | 36.72171 | 4.42613 | 25737 ft | 439 kts | 92° |
| 2026-05-01 13:44 | 36.72141 | 4.46432 | 26153 ft | 442 kts | 92° |
| 2026-05-01 13:45 | 36.72110 | 4.50275 | 26569 ft | 445 kts | 92° |
| 2026-05-01 13:45 | 36.72078 | 4.54142 | 26960 ft | 448 kts | 92° |
| 2026-05-01 13:45 | 36.72043 | 4.58029 | 27337 ft | 450 kts | 92° |
| 2026-05-01 13:45 | 36.72008 | 4.61949 | 27722 ft | 453 kts | 92° |
| 2026-05-01 13:46 | 36.71984 | 4.64546 | 27968 ft | 454 kts | 92° |
| 2026-05-01 13:46 | 36.71932 | 4.69842 | 28453 ft | 458 kts | 92° |
| 2026-05-01 13:46 | 36.71893 | 4.73764 | 28805 ft | 461 kts | 92° |
| 2026-05-01 13:46 | 36.71851 | 4.77771 | 29163 ft | 463 kts | 92° |
| 2026-05-01 13:47 | 36.71808 | 4.81789 | 29512 ft | 466 kts | 92° |
| 2026-05-01 13:47 | 36.71764 | 4.85839 | 29859 ft | 468 kts | 93° |
| 2026-05-01 13:47 | 36.71718 | 4.89903 | 30181 ft | 471 kts | 93° |
| 2026-05-01 13:47 | 36.71670 | 4.93989 | 30453 ft | 473 kts | 93° |
| 2026-05-01 13:48 | 36.71621 | 4.98096 | 30724 ft | 475 kts | 93° |
| 2026-05-01 13:48 | 36.71570 | 5.02215 | 30997 ft | 477 kts | 93° |
| 2026-05-01 13:48 | 36.71520 | 5.06308 | 31275 ft | 479 kts | 92° |
| 2026-05-01 13:48 | 36.71666 | 5.10457 | 31512 ft | 482 kts | 85° |
| 2026-05-01 13:49 | 36.72081 | 5.14615 | 31865 ft | 482 kts | 84° |
| 2026-05-01 13:49 | 36.72558 | 5.18742 | 32278 ft | 480 kts | 83° |
| 2026-05-01 13:49 | 36.73045 | 5.22845 | 32668 ft | 478 kts | 83° |
| 2026-05-01 13:49 | 36.73522 | 5.26954 | 33004 ft | 478 kts | 84° |
| 2026-05-01 13:50 | 36.73980 | 5.31058 | 33310 ft | 478 kts | 84° |
| 2026-05-01 13:50 | 36.74423 | 5.35166 | 33643 ft | 478 kts | 84° |
| 2026-05-01 13:50 | 36.74849 | 5.39198 | 33990 ft | 476 kts | 85° |
| 2026-05-01 13:50 | 36.75277 | 5.43302 | 34313 ft | 475 kts | 85° |
| 2026-05-01 13:51 | 36.75700 | 5.47388 | 34560 ft | 476 kts | 85° |
| 2026-05-01 13:51 | 36.76123 | 5.51484 | 34780 ft | 477 kts | 85° |
| 2026-05-01 13:51 | 36.76546 | 5.55579 | 35039 ft | 476 kts | 85° |
| 2026-05-01 13:51 | 36.76969 | 5.59679 | 35317 ft | 476 kts | 85° |
| 2026-05-01 13:52 | 36.77388 | 5.63764 | 35549 ft | 476 kts | 85° |
| 2026-05-01 13:52 | 36.77808 | 5.67861 | 35776 ft | 476 kts | 85° |
| 2026-05-01 13:52 | 36.78221 | 5.71903 | 36028 ft | 476 kts | 85° |
| 2026-05-01 13:52 | 36.78638 | 5.76000 | 36296 ft | 475 kts | 85° |
| 2026-05-01 13:53 | 36.79052 | 5.80082 | 36536 ft | 476 kts | 85° |
| 2026-05-01 13:53 | 36.79851 | 5.88270 | 37000 ft | 475 kts | 87° |
| 2026-05-01 13:53 | 36.80053 | 5.92389 | 37229 ft | 474 kts | 90° |
| 2026-05-01 13:54 | 36.80160 | 5.96503 | 37432 ft | 474 kts | 91° |
| 2026-05-01 13:54 | 36.80228 | 6.00617 | 37667 ft | 474 kts | 91° |
| 2026-05-01 13:54 | 36.80287 | 6.04672 | 37897 ft | 474 kts | 91° |
| 2026-05-01 13:54 | 36.80355 | 6.08775 | 38130 ft | 473 kts | 90° |
| 2026-05-01 13:55 | 36.80432 | 6.12872 | 38320 ft | 473 kts | 90° |
| 2026-05-01 13:55 | 36.80517 | 6.16977 | 38489 ft | 474 kts | 90° |
| 2026-05-01 13:55 | 36.80608 | 6.21086 | 38692 ft | 473 kts | 90° |
| 2026-05-01 13:55 | 36.80701 | 6.25185 | 38891 ft | 473 kts | 90° |
| 2026-05-01 13:56 | 36.80794 | 6.29289 | 39026 ft | 472 kts | 90° |
| 2026-05-01 13:56 | 36.80886 | 6.33376 | 39111 ft | 472 kts | 90° |
| 2026-05-01 13:56 | 36.81063 | 6.41536 | 39140 ft | 475 kts | 90° |
| 2026-05-01 13:57 | 36.81207 | 6.48437 | 39143 ft | 476 kts | 90° |
| 2026-05-01 13:57 | 36.81400 | 6.58034 | 39129 ft | 477 kts | 90° |
| 2026-05-01 13:58 | 36.81561 | 6.66306 | 39143 ft | 477 kts | 90° |
| 2026-05-01 13:58 | 36.81715 | 6.74579 | 39132 ft | 477 kts | 90° |
| 2026-05-01 13:59 | 36.81863 | 6.82794 | 39141 ft | 477 kts | 90° |
| 2026-05-01 13:59 | 36.82007 | 6.91060 | 39145 ft | 476 kts | 90° |
| 2026-05-01 14:00 | 36.82144 | 6.99307 | 39147 ft | 475 kts | 90° |
| 2026-05-01 14:00 | 36.82274 | 7.07483 | 39131 ft | 474 kts | 90° |
| 2026-05-01 14:01 | 36.82399 | 7.15696 | 39144 ft | 473 kts | 90° |
| 2026-05-01 14:01 | 36.82519 | 7.23900 | 39139 ft | 472 kts | 90° |
| 2026-05-01 14:02 | 36.82633 | 7.32090 | 39145 ft | 471 kts | 90° |
| 2026-05-01 14:02 | 36.82740 | 7.40208 | 39134 ft | 470 kts | 90° |
| 2026-05-01 14:03 | 36.82842 | 7.48360 | 39146 ft | 469 kts | 90° |
| 2026-05-01 14:03 | 36.82938 | 7.56502 | 39160 ft | 469 kts | 90° |
| 2026-05-01 14:04 | 36.83029 | 7.64632 | 39152 ft | 468 kts | 91° |
| 2026-05-01 14:04 | 36.83100 | 7.71385 | 39162 ft | 468 kts | 91° |
| 2026-05-01 14:05 | 36.83194 | 7.80839 | 39159 ft | 468 kts | 91° |
| 2026-05-01 14:05 | 36.83250 | 7.88960 | 39160 ft | 468 kts | 91° |
| 2026-05-01 14:06 | 36.83285 | 7.97082 | 39155 ft | 468 kts | 91° |
| 2026-05-01 14:06 | 36.83315 | 8.05149 | 39151 ft | 469 kts | 91° |
| 2026-05-01 14:07 | 36.83343 | 8.13292 | 39145 ft | 469 kts | 91° |
| 2026-05-01 14:08 | 36.83377 | 8.25528 | 39148 ft | 471 kts | 91° |
| 2026-05-01 14:08 | 36.83392 | 8.33711 | 39143 ft | 472 kts | 91° |
| 2026-05-01 14:09 | 36.83402 | 8.41852 | 39137 ft | 473 kts | 91° |
| 2026-05-01 14:09 | 36.83406 | 8.50061 | 39144 ft | 474 kts | 91° |
| 2026-05-01 14:10 | 36.83405 | 8.58301 | 39150 ft | 475 kts | 91° |
| 2026-05-01 14:10 | 36.83392 | 8.66557 | 39151 ft | 476 kts | 92° |
| 2026-05-01 14:11 | 36.83231 | 8.74763 | 39143 ft | 477 kts | 93° |
| 2026-05-01 14:11 | 36.82929 | 8.87192 | 39137 ft | 478 kts | 93° |
| 2026-05-01 14:12 | 36.82745 | 8.95506 | 39129 ft | 479 kts | 93° |
| 2026-05-01 14:12 | 36.82826 | 9.03833 | 39136 ft | 481 kts | 88° |
| 2026-05-01 14:13 | 36.83090 | 9.10760 | 39144 ft | 481 kts | 88° |
| 2026-05-01 14:13 | 36.83341 | 9.20488 | 39133 ft | 483 kts | 89° |
| 2026-05-01 14:14 | 36.83514 | 9.28861 | 39132 ft | 483 kts | 89° |
| 2026-05-01 14:14 | 36.83696 | 9.37251 | 39130 ft | 483 kts | 89° |
| 2026-05-01 14:15 | 36.83871 | 9.45580 | 39130 ft | 484 kts | 89° |
| 2026-05-01 14:15 | 36.84028 | 9.53969 | 39131 ft | 483 kts | 89° |
| 2026-05-01 14:16 | 36.84177 | 9.62357 | 39132 ft | 483 kts | 89° |
| 2026-05-01 14:16 | 36.84321 | 9.70747 | 39129 ft | 483 kts | 89° |
| 2026-05-01 14:17 | 36.84461 | 9.79076 | 39128 ft | 483 kts | 89° |
| 2026-05-01 14:17 | 36.84595 | 9.87456 | 39132 ft | 483 kts | 88° |
| 2026-05-01 14:18 | 36.84723 | 9.95839 | 39130 ft | 483 kts | 88° |
| 2026-05-01 14:18 | 36.84825 | 10.02797 | 39134 ft | 483 kts | 88° |
| 2026-05-01 14:19 | 36.84962 | 10.12557 | 39128 ft | 484 kts | 88° |
| 2026-05-01 14:19 | 36.85066 | 10.20956 | 39128 ft | 484 kts | 90° |
| 2026-05-01 14:20 | 36.83662 | 10.31978 | 39134 ft | 484 kts | 104° |
| 2026-05-01 14:21 | 36.81865 | 10.41496 | 39134 ft | 486 kts | 103° |
| 2026-05-01 14:21 | 36.80374 | 10.49739 | 39137 ft | 487 kts | 103° |
| 2026-05-01 14:22 | 36.78169 | 10.62131 | 39138 ft | 489 kts | 103° |
| 2026-05-01 14:22 | 36.76687 | 10.70355 | 39134 ft | 490 kts | 103° |
| 2026-05-01 14:23 | 36.75176 | 10.78659 | 39130 ft | 491 kts | 103° |
| 2026-05-01 14:23 | 36.73915 | 10.85562 | 39136 ft | 492 kts | 103° |
| 2026-05-01 14:24 | 36.72392 | 10.93888 | 39137 ft | 492 kts | 103° |
| 2026-05-01 14:24 | 36.70616 | 11.03554 | 39135 ft | 493 kts | 103° |
| 2026-05-01 14:25 | 36.69342 | 11.10477 | 39131 ft | 493 kts | 103° |
| 2026-05-01 14:25 | 36.67809 | 11.18788 | 39133 ft | 492 kts | 103° |
| 2026-05-01 14:26 | 36.65254 | 11.32575 | 39137 ft | 491 kts | 103° |
| 2026-05-01 14:27 | 36.63962 | 11.39517 | 39129 ft | 491 kts | 103° |
| 2026-05-01 14:27 | 36.62478 | 11.47750 | 39124 ft | 490 kts | 98° |
| 2026-05-01 14:28 | 36.62322 | 11.56170 | 39144 ft | 486 kts | 82° |
| 2026-05-01 14:28 | 36.62659 | 11.60353 | 39140 ft | 486 kts | 82° |
| 2026-05-01 14:28 | 36.63381 | 11.68722 | 39135 ft | 486 kts | 82° |
| 2026-05-01 14:29 | 36.64062 | 11.77056 | 39130 ft | 487 kts | 82° |
| 2026-05-01 14:30 | 36.65328 | 11.93903 | 39134 ft | 490 kts | 83° |
| 2026-05-01 14:31 | 36.66254 | 12.06587 | 39128 ft | 491 kts | 83° |
| 2026-05-01 14:31 | 36.66863 | 12.14994 | 39133 ft | 491 kts | 83° |
| 2026-05-01 14:32 | 36.67472 | 12.23478 | 39130 ft | 492 kts | 83° |
| 2026-05-01 14:32 | 36.68075 | 12.31974 | 39125 ft | 492 kts | 83° |
| 2026-05-01 14:33 | 36.68668 | 12.40404 | 39127 ft | 492 kts | 83° |
| 2026-05-01 14:33 | 36.69260 | 12.48905 | 39123 ft | 492 kts | 83° |
| 2026-05-01 14:34 | 36.69845 | 12.57398 | 39121 ft | 492 kts | 83° |
| 2026-05-01 14:34 | 36.70423 | 12.65888 | 39115 ft | 492 kts | 83° |
| 2026-05-01 14:35 | 36.70992 | 12.74320 | 39118 ft | 491 kts | 83° |
| 2026-05-01 14:35 | 36.71558 | 12.82801 | 39115 ft | 491 kts | 83° |
| 2026-05-01 14:36 | 36.72118 | 12.91282 | 39113 ft | 491 kts | 83° |
| 2026-05-01 14:36 | 36.72668 | 12.99707 | 39113 ft | 491 kts | 83° |
| 2026-05-01 14:37 | 36.73215 | 13.08187 | 39115 ft | 491 kts | 83° |
| 2026-05-01 14:37 | 36.73757 | 13.16665 | 39115 ft | 491 kts | 84° |
| 2026-05-01 14:38 | 36.74293 | 13.25154 | 39116 ft | 491 kts | 84° |
| 2026-05-01 14:38 | 36.74823 | 13.33650 | 39116 ft | 492 kts | 84° |
| 2026-05-01 14:39 | 36.75345 | 13.42102 | 39115 ft | 492 kts | 84° |
| 2026-05-01 14:39 | 36.75864 | 13.50619 | 39117 ft | 493 kts | 84° |
| 2026-05-01 14:40 | 36.76378 | 13.59153 | 39119 ft | 494 kts | 84° |
| 2026-05-01 14:40 | 36.76883 | 13.67644 | 39113 ft | 494 kts | 84° |
| 2026-05-01 14:41 | 36.77386 | 13.76194 | 39117 ft | 495 kts | 85° |
| 2026-05-01 14:41 | 36.77883 | 13.84755 | 39119 ft | 495 kts | 85° |
| 2026-05-01 14:42 | 36.78376 | 13.93336 | 39113 ft | 496 kts | 85° |
| 2026-05-01 14:42 | 36.78861 | 14.01913 | 39118 ft | 496 kts | 85° |
| 2026-05-01 14:43 | 36.79339 | 14.10448 | 39115 ft | 497 kts | 85° |
| 2026-05-01 14:43 | 36.79814 | 14.19057 | 39119 ft | 497 kts | 85° |
| 2026-05-01 14:44 | 36.80283 | 14.27664 | 39120 ft | 498 kts | 85° |
| 2026-05-01 14:44 | 36.80975 | 14.40590 | 39129 ft | 498 kts | 85° |
| 2026-05-01 14:45 | 36.81652 | 14.53488 | 39131 ft | 499 kts | 85° |
| 2026-05-01 14:46 | 36.82120 | 14.62133 | 39123 ft | 499 kts | 82° |
| 2026-05-01 14:46 | 36.83775 | 14.70478 | 39129 ft | 494 kts | 63° |
| 2026-05-01 14:46 | 36.85200 | 14.74379 | 39147 ft | 493 kts | 61° |
| 2026-05-01 14:47 | 36.88130 | 14.82054 | 39140 ft | 493 kts | 61° |
| 2026-05-01 14:48 | 36.92517 | 14.93698 | 39137 ft | 495 kts | 62° |
| 2026-05-01 14:48 | 36.96838 | 15.05433 | 39144 ft | 496 kts | 62° |
| 2026-05-01 14:49 | 37.02574 | 15.21113 | 39148 ft | 498 kts | 62° |
| 2026-05-01 14:50 | 37.08334 | 15.36924 | 39128 ft | 500 kts | 62° |
| 2026-05-01 14:51 | 37.12629 | 15.48766 | 39136 ft | 500 kts | 62° |
| 2026-05-01 14:52 | 37.16938 | 15.60691 | 39130 ft | 501 kts | 62° |
| 2026-05-01 14:53 | 37.21215 | 15.72578 | 39124 ft | 501 kts | 62° |
| 2026-05-01 14:53 | 37.24075 | 15.80551 | 39121 ft | 501 kts | 62° |
| 2026-05-01 14:54 | 37.26926 | 15.88520 | 39119 ft | 500 kts | 62° |
| 2026-05-01 14:54 | 37.29770 | 15.96491 | 39119 ft | 500 kts | 62° |
| 2026-05-01 14:55 | 37.32591 | 16.04418 | 39123 ft | 500 kts | 62° |
| 2026-05-01 14:55 | 37.35420 | 16.12389 | 39122 ft | 499 kts | 62° |
| 2026-05-01 14:56 | 37.38246 | 16.20372 | 39119 ft | 499 kts | 62° |
| 2026-05-01 14:56 | 37.41059 | 16.28340 | 39117 ft | 499 kts | 62° |
| 2026-05-01 14:57 | 37.43851 | 16.36270 | 39121 ft | 499 kts | 62° |
| 2026-05-01 14:57 | 37.48054 | 16.48244 | 39121 ft | 499 kts | 62° |
| 2026-05-01 14:58 | 37.50849 | 16.56235 | 39120 ft | 499 kts | 62° |
| 2026-05-01 14:58 | 37.53624 | 16.64189 | 39114 ft | 499 kts | 62° |
| 2026-05-01 14:59 | 37.56412 | 16.72203 | 39117 ft | 500 kts | 62° |
| 2026-05-01 14:59 | 37.59197 | 16.80229 | 39109 ft | 500 kts | 62° |
| 2026-05-01 15:00 | 37.63375 | 16.92309 | 39113 ft | 502 kts | 63° |
| 2026-05-01 15:01 | 37.66142 | 17.00337 | 39117 ft | 503 kts | 63° |
| 2026-05-01 15:01 | 37.68924 | 17.08433 | 39110 ft | 504 kts | 63° |
| 2026-05-01 15:02 | 37.71701 | 17.16534 | 39110 ft | 505 kts | 63° |
| 2026-05-01 15:02 | 37.74494 | 17.24705 | 39106 ft | 506 kts | 63° |
| 2026-05-01 15:03 | 37.77259 | 17.32815 | 39102 ft | 506 kts | 63° |
| 2026-05-01 15:03 | 37.80040 | 17.40998 | 39107 ft | 507 kts | 63° |
| 2026-05-01 15:04 | 37.82821 | 17.49201 | 39109 ft | 508 kts | 63° |
| 2026-05-01 15:04 | 37.85599 | 17.57422 | 39100 ft | 508 kts | 63° |
| 2026-05-01 15:05 | 37.88355 | 17.65596 | 39089 ft | 508 kts | 63° |
| 2026-05-01 15:05 | 37.91121 | 17.73826 | 39091 ft | 508 kts | 63° |
| 2026-05-01 15:06 | 37.93882 | 17.82067 | 39089 ft | 508 kts | 63° |
| 2026-05-01 15:06 | 37.96639 | 17.90312 | 39088 ft | 508 kts | 63° |
| 2026-05-01 15:07 | 37.99427 | 17.98535 | 39087 ft | 508 kts | 62° |
| 2026-05-01 15:07 | 38.02247 | 18.06677 | 39083 ft | 508 kts | 62° |
| 2026-05-01 15:08 | 38.05083 | 18.14879 | 39078 ft | 508 kts | 62° |
| 2026-05-01 15:08 | 38.07900 | 18.23087 | 39080 ft | 508 kts | 63° |
| 2026-05-01 15:09 | 38.10709 | 18.31311 | 39074 ft | 508 kts | 63° |
| 2026-05-01 15:09 | 38.13498 | 18.39499 | 39077 ft | 508 kts | 63° |
| 2026-05-01 15:10 | 38.16300 | 18.47749 | 39072 ft | 509 kts | 63° |
| 2026-05-01 15:10 | 38.20494 | 18.60140 | 39076 ft | 509 kts | 63° |
| 2026-05-01 15:11 | 38.24664 | 18.72509 | 39062 ft | 510 kts | 63° |
| 2026-05-01 15:12 | 38.27454 | 18.80816 | 39055 ft | 510 kts | 63° |
| 2026-05-01 15:12 | 38.31623 | 18.93275 | 39057 ft | 511 kts | 63° |
| 2026-05-01 15:14 | 38.38540 | 19.14061 | 39052 ft | 511 kts | 63° |
| 2026-05-01 15:14 | 38.42687 | 19.26598 | 39051 ft | 512 kts | 63° |
| 2026-05-01 15:15 | 38.48181 | 19.43290 | 39046 ft | 512 kts | 63° |
| 2026-05-01 15:16 | 38.53671 | 19.60068 | 39045 ft | 512 kts | 63° |
| 2026-05-01 15:18 | 38.60475 | 19.81002 | 39037 ft | 511 kts | 63° |
| 2026-05-01 15:19 | 38.65897 | 19.97793 | 39045 ft | 510 kts | 64° |
| 2026-05-01 15:19 | 38.69925 | 20.10332 | 39049 ft | 510 kts | 64° |
| 2026-05-01 15:20 | 38.73955 | 20.22935 | 39053 ft | 510 kts | 64° |
| 2026-05-01 15:21 | 38.76633 | 20.31342 | 39044 ft | 509 kts | 64° |
| 2026-05-01 15:21 | 38.79283 | 20.39684 | 39050 ft | 509 kts | 64° |
| 2026-05-01 15:22 | 38.83272 | 20.52292 | 39052 ft | 508 kts | 64° |
| 2026-05-01 15:22 | 38.85922 | 20.60697 | 39051 ft | 508 kts | 64° |
| 2026-05-01 15:23 | 38.88587 | 20.69090 | 39051 ft | 507 kts | 63° |
| 2026-05-01 15:23 | 38.91342 | 20.77352 | 39056 ft | 506 kts | 63° |
| 2026-05-01 15:24 | 38.94135 | 20.85652 | 39050 ft | 506 kts | 63° |
| 2026-05-01 15:24 | 38.96910 | 20.93969 | 39051 ft | 506 kts | 63° |
| 2026-05-01 15:25 | 38.99666 | 21.02300 | 39061 ft | 506 kts | 63° |
| 2026-05-01 15:25 | 39.02394 | 21.10582 | 39070 ft | 506 kts | 63° |
| 2026-05-01 15:26 | 39.05134 | 21.18923 | 39083 ft | 507 kts | 63° |
| 2026-05-01 15:26 | 39.07872 | 21.27279 | 39092 ft | 507 kts | 63° |
| 2026-05-01 15:27 | 39.10605 | 21.35643 | 39103 ft | 507 kts | 63° |
| 2026-05-01 15:28 | 39.14670 | 21.48134 | 39135 ft | 506 kts | 63° |
| 2026-05-01 15:28 | 39.17385 | 21.56504 | 39161 ft | 506 kts | 64° |
| 2026-05-01 15:29 | 39.21445 | 21.69072 | 39178 ft | 506 kts | 64° |
| 2026-05-01 15:30 | 39.26813 | 21.85774 | 39196 ft | 505 kts | 64° |
| 2026-05-01 15:31 | 39.34822 | 22.10881 | 39197 ft | 503 kts | 64° |
| 2026-05-01 15:32 | 39.40097 | 22.27538 | 39202 ft | 502 kts | 64° |
| 2026-05-01 15:34 | 39.47989 | 22.52653 | 39205 ft | 502 kts | 64° |